Time;durP1;ratioP1;P1;durP2;ratioP2;P2;SDS_P1;SDS_P2;PMS_P1;PMS_P2;Temp;Humidity;BMP_temperature;BMP_pressure;BME280_temperature;BME280_humidity;BME280_pressure;Samples;Min_cycle;Max_cycle;Signal;HPM_P1;HPM_P2
2023/04/07 00:00:03;;;;;;;101.13;7.78;;;;;;;21.43;54.07;99667.69;7309185;19;130762;-40
2023/04/07 00:02:28;;;;;;;63.72;6.10;;;;;;;21.43;54.30;99662.47;7309108;19;130919;-41
2023/04/07 00:04:56;;;;;;;75.32;6.43;;;;;;;21.44;54.07;99653.66;7309024;19;130058;-41
2023/04/07 00:07:21;;;;;;;63.10;6.00;;;;;;;21.43;53.90;99665.91;7308665;19;129865;-42
2023/04/07 00:09:46;;;;;;;78.40;6.32;;;;;;;21.43;54.13;99658.06;7308653;19;130086;-40
2023/04/07 00:12:12;;;;;;;57.15;5.38;;;;;;;21.42;54.00;99656.41;7308778;19;130244;-39
2023/04/07 00:14:37;;;;;;;65.65;6.30;;;;;;;21.42;53.55;99655.59;7309774;19;130969;-42
2023/04/07 00:17:02;;;;;;;57.13;5.80;;;;;;;21.40;53.49;99655.72;7310556;19;130019;-41
2023/04/07 00:19:28;;;;;;;69.05;5.95;;;;;;;21.41;53.53;99659.16;7308887;19;130853;-41
2023/04/07 00:21:53;;;;;;;42.80;5.00;;;;;;;21.40;53.52;99658.31;7308782;19;130001;-41
2023/04/07 00:24:18;;;;;;;62.25;5.60;;;;;;;21.41;53.63;99662.59;7306969;19;129072;-40
2023/04/07 00:26:44;;;;;;;69.22;6.13;;;;;;;21.38;53.68;99655.03;7309987;19;131788;-42
2023/04/07 00:29:09;;;;;;;75.68;5.82;;;;;;;21.39;53.59;99661.91;7307529;19;130157;-41
2023/04/07 00:31:34;;;;;;;75.65;6.60;;;;;;;21.39;53.73;99661.91;7307875;19;129212;-40
2023/04/07 00:34:00;;;;;;;61.20;5.68;;;;;;;21.38;53.80;99660.28;7306444;19;130105;-41
2023/04/07 00:36:26;;;;;;;77.88;5.95;;;;;;;21.37;54.19;99653.38;7308999;19;130959;-40
2023/04/07 00:38:51;;;;;;;58.33;4.67;;;;;;;21.38;54.26;99659.44;7309320;19;131149;-42
2023/04/07 00:41:16;;;;;;;73.10;6.37;;;;;;;21.38;53.49;99659.44;7308210;19;129228;-42
2023/04/07 00:43:42;;;;;;;66.75;5.82;;;;;;;21.37;53.85;99648.13;7306666;19;130542;-41
2023/04/07 00:46:07;;;;;;;74.38;5.90;;;;;;;21.37;53.56;99642.91;7308759;19;129536;-40
2023/04/07 00:48:32;;;;;;;61.55;5.25;;;;;;;21.36;53.71;99646.50;7309084;19;129408;-40
2023/04/07 00:50:58;;;;;;;51.08;4.82;;;;;;;21.37;53.50;99642.09;7308591;19;129970;-42
2023/04/07 00:53:23;;;;;;;69.30;5.78;;;;;;;21.36;53.54;99646.50;7306501;19;129611;-40
2023/04/07 00:55:49;;;;;;;72.93;5.67;;;;;;;21.36;53.27;99643.06;7308199;19;129527;-41
2023/04/07 00:58:14;;;;;;;51.90;4.90;;;;;;;21.35;54.06;99642.25;7309211;19;129110;-43
2023/04/07 01:00:58;;;;;;;100.70;7.53;;;;;;;21.35;54.05;99631.78;7307159;19;130179;-41
2023/04/07 01:03:48;;;;;;;61.38;5.22;;;;;;;21.34;54.31;99627.50;7305984;19;129144;-43
2023/04/07 01:06:17;;;;;;;67.93;5.60;;;;;;;21.31;54.21;99627.78;7308349;19;130014;-42
2023/04/07 01:09:03;;;;;;;70.70;5.75;;;;;;;21.33;54.10;99625.03;7306895;19;130356;-40
2023/04/07 01:12:04;;;;;;;84.90;6.65;;;;;;;21.34;53.64;99619.66;7307329;19;129158;-40
2023/04/07 01:14:33;;;;;;;38.95;4.88;;;;;;;21.32;53.89;99623.38;7305059;19;129188;-39
2023/04/07 01:17:02;;;;;;;71.13;5.78;;;;;;;21.25;54.12;99617.88;7306905;19;130123;-42
2023/04/07 01:19:46;;;;;;;66.25;5.30;;;;;;;21.31;54.22;99624.31;7308262;19;131789;-40
2023/04/07 01:22:22;;;;;;;68.60;5.07;;;;;;;21.31;54.39;99621.72;7306583;19;130399;-42
2023/04/07 01:25:26;;;;;;;42.77;4.83;;;;;;;21.30;53.75;99615.69;7309264;19;129394;-41
2023/04/07 01:28:02;;;;;;;81.85;6.47;;;;;;;21.30;53.73;99610.44;7307487;19;130190;-42
2023/04/07 01:30:40;;;;;;;55.50;4.68;;;;;;;21.28;54.21;99609.75;7305919;19;131102;-42
2023/04/07 01:33:08;;;;;;;62.22;4.90;;;;;;;21.28;54.12;99612.38;7305415;19;130842;-42
2023/04/07 01:35:35;;;;;;;39.63;4.18;;;;;;;21.27;54.03;99605.47;7306598;19;131197;-42
2023/04/07 01:38:02;;;;;;;58.35;5.22;;;;;;;21.27;53.84;99608.09;7307925;19;130187;-42
2023/04/07 01:40:29;;;;;;;70.45;5.45;;;;;;;21.26;54.04;99603.81;7306481;19;131492;-40
2023/04/07 01:42:56;;;;;;;64.30;5.65;;;;;;;21.26;53.60;99603.81;7308714;19;130995;-40
2023/04/07 01:45:22;;;;;;;53.13;5.15;;;;;;;21.26;53.85;99600.38;7314835;19;130641;-42
2023/04/07 01:47:49;;;;;;;65.97;5.55;;;;;;;21.26;53.87;99597.75;7313285;19;131009;-42
2023/04/07 01:50:15;;;;;;;78.57;6.00;;;;;;;21.26;54.09;99601.22;7312166;19;129403;-42
2023/04/07 01:52:41;;;;;;;50.00;4.78;;;;;;;21.21;53.64;99589.50;7312726;19;130342;-40
2023/04/07 01:55:08;;;;;;;42.23;4.40;;;;;;;21.26;54.00;99598.59;7314102;19;129950;-40
2023/04/07 01:57:34;;;;;;;59.80;5.05;;;;;;;21.24;53.47;99590.06;7314399;19;129557;-40
2023/04/07 01:59:59;;;;;;;79.18;5.85;;;;;;;21.25;53.90;99596.13;7313525;19;131480;-40
2023/04/07 02:02:24;;;;;;;65.65;5.53;;;;;;;21.23;53.42;99598.88;7312513;19;131351;-41
2023/04/07 02:04:59;;;;;;;63.72;5.40;;;;;;;21.23;54.27;99592.81;7313596;19;130053;-40
2023/04/07 02:08:00;;;;;;;54.15;4.82;;;;;;;21.24;53.59;99595.28;7312975;19;130263;-42
2023/04/07 02:10:28;;;;;;;64.03;5.28;;;;;;;21.18;53.53;99580.16;7311332;19;129474;-41
2023/04/07 02:12:56;;;;;;;80.65;6.30;;;;;;;21.22;53.41;99591.97;7312217;19;131122;-41
2023/04/07 02:15:23;;;;;;;85.95;6.05;;;;;;;21.21;53.58;99592.94;7313179;19;130634;-40
2023/04/07 02:17:52;;;;;;;55.55;4.97;;;;;;;21.22;54.15;99591.97;7313625;19;130457;-40
2023/04/07 02:20:19;;;;;;;45.33;4.47;;;;;;;21.20;54.00;99586.09;7313174;19;130263;-42
2023/04/07 02:22:45;;;;;;;53.42;5.03;;;;;;;21.20;53.40;99590.47;7310810;19;130360;-41
2023/04/07 02:25:25;;;;;;;72.65;5.38;;;;;;;21.22;53.84;99591.19;7313496;19;129204;-41
2023/04/07 02:27:51;;;;;;;70.35;5.35;;;;;;;21.20;53.75;99593.09;7312873;19;130665;-43
2023/04/07 02:30:17;;;;;;;61.97;5.18;;;;;;;21.17;53.40;99586.34;7311234;19;129947;-40
2023/04/07 02:32:42;;;;;;;29.40;3.90;;;;;;;21.20;53.60;99588.69;7311278;19;130826;-41
2023/04/07 02:35:08;;;;;;;57.38;5.32;;;;;;;21.18;53.67;99582.78;7312092;19;130657;-41
2023/04/07 02:37:33;;;;;;;56.55;4.78;;;;;;;21.18;53.21;99580.16;7313316;19;129040;-41
2023/04/07 02:39:59;;;;;;;54.85;4.78;;;;;;;21.18;53.67;99580.16;7312265;19;129175;-42
2023/04/07 02:42:24;;;;;;;75.30;5.87;;;;;;;21.07;53.88;99562.00;7310599;19;130116;-40
2023/04/07 02:44:50;;;;;;;71.28;5.32;;;;;;;21.18;53.36;99577.53;7312231;19;130357;-41
2023/04/07 02:47:15;;;;;;;55.47;5.07;;;;;;;21.18;53.16;99574.94;7312246;19;130837;-41
2023/04/07 02:49:41;;;;;;;77.28;5.82;;;;;;;21.15;53.69;99572.59;7310764;19;131066;-42
2023/04/07 02:52:06;;;;;;;78.75;6.18;;;;;;;21.17;53.31;99568.03;7311427;19;129881;-42
2023/04/07 02:54:32;;;;;;;81.95;6.03;;;;;;;21.17;53.17;99572.47;7308316;19;130088;-41
2023/04/07 02:56:57;;;;;;;69.88;5.10;;;;;;;21.17;53.33;99567.22;7312478;19;130212;-41
2023/04/07 02:59:22;;;;;;;58.50;5.05;;;;;;;21.15;53.35;99564.75;7311601;19;129635;-41
2023/04/07 03:01:48;;;;;;;61.60;5.13;;;;;;;21.16;53.51;99563.78;7310853;19;129592;-41
2023/04/07 03:04:13;;;;;;;63.25;5.20;;;;;;;21.14;53.35;99563.09;7310132;19;128833;-40
2023/04/07 03:06:38;;;;;;;58.92;5.13;;;;;;;21.15;53.07;99569.16;7311081;19;129075;-42
2023/04/07 03:09:04;;;;;;;34.35;3.58;;;;;;;21.14;53.36;99568.31;7313040;19;130509;-42
2023/04/07 03:11:29;;;;;;;107.43;7.60;;;;;;;21.14;53.76;99568.31;7311218;19;130374;-41
2023/04/07 03:13:55;;;;;;;67.32;5.10;;;;;;;21.12;53.71;99567.63;7309396;19;129011;-40
2023/04/07 03:16:20;;;;;;;57.25;4.85;;;;;;;21.01;53.71;99540.78;7311500;19;130824;-43
2023/04/07 03:18:46;;;;;;;60.15;5.03;;;;;;;21.13;53.92;99566.69;7310645;19;129897;-42
2023/04/07 03:21:11;;;;;;;72.07;5.28;;;;;;;21.13;53.84;99561.44;7310703;19;131961;-42
2023/04/07 03:23:37;;;;;;;47.05;4.47;;;;;;;21.12;53.08;99554.53;7310749;19;130646;-41
2023/04/07 03:26:02;;;;;;;76.00;6.03;;;;;;;21.12;53.55;99556.34;7310500;19;129062;-40
2023/04/07 03:28:28;;;;;;;48.03;4.65;;;;;;;21.01;53.92;99540.78;7308214;19;130437;-41
2023/04/07 03:30:53;;;;;;;73.55;5.25;;;;;;;21.11;53.79;99557.31;7308799;19;130058;-41
2023/04/07 03:33:18;;;;;;;49.23;4.17;;;;;;;21.11;53.79;99558.13;7309105;19;130239;-42
2023/04/07 03:35:44;;;;;;;35.13;3.80;;;;;;;21.10;53.88;99556.50;7311835;19;130506;-43
2023/04/07 03:38:09;;;;;;;40.58;4.15;;;;;;;21.11;53.64;99552.91;7309846;19;130877;-41
2023/04/07 03:40:36;;;;;;;97.95;6.72;;;;;;;21.09;53.25;99549.59;7310796;19;130354;-40
2023/04/07 03:43:02;;;;;;;69.18;5.53;;;;;;;21.09;53.49;99549.59;7309337;19;132608;-42
2023/04/07 03:45:27;;;;;;;54.42;4.55;;;;;;;21.08;53.75;99550.56;7310607;19;130017;-40
2023/04/07 03:47:53;;;;;;;36.17;3.95;;;;;;;21.08;53.22;99545.34;7309348;19;131054;-40
2023/04/07 03:50:18;;;;;;;79.53;5.80;;;;;;;21.08;53.47;99547.97;7308788;19;130613;-41
2023/04/07 03:52:43;;;;;;;76.95;5.70;;;;;;;21.08;53.59;99552.34;7308999;19;129434;-41
2023/04/07 03:55:09;;;;;;;46.58;4.13;;;;;;;21.06;53.64;99544.66;7311632;19;130599;-42
2023/04/07 03:57:34;;;;;;;72.95;5.50;;;;;;;21.05;53.31;99543.00;7309397;19;130107;-40
2023/04/07 04:00:00;;;;;;;59.78;4.63;;;;;;;21.07;53.51;99541.09;7309286;19;129303;-40
2023/04/07 04:02:25;;;;;;;68.88;5.22;;;;;;;21.06;53.60;99549.88;7309490;19;130658;-41
2023/04/07 04:04:50;;;;;;;53.50;4.68;;;;;;;21.05;53.59;99548.25;7309148;19;130229;-41
2023/04/07 04:07:16;;;;;;;77.07;5.57;;;;;;;21.06;53.12;99549.88;7306947;19;129817;-41
2023/04/07 04:09:41;;;;;;;63.47;5.18;;;;;;;21.05;53.33;99548.25;7309575;19;131059;-41
2023/04/07 04:12:06;;;;;;;58.72;5.05;;;;;;;21.03;53.29;99544.94;7308694;19;129608;-40
2023/04/07 04:14:32;;;;;;;59.17;4.75;;;;;;;21.04;53.77;99554.41;7307940;19;129606;-42
2023/04/07 04:16:57;;;;;;;59.58;4.95;;;;;;;21.03;53.40;99558.00;7309369;19;129491;-42
2023/04/07 04:19:23;;;;;;;62.63;4.85;;;;;;;21.03;53.78;99549.31;7309082;19;130326;-41
2023/04/07 04:21:48;;;;;;;57.72;4.80;;;;;;;21.04;53.37;99556.22;7309852;19;131677;-42
2023/04/07 04:24:13;;;;;;;48.33;4.47;;;;;;;21.02;53.19;99553.75;7306333;19;129259;-39
2023/04/07 04:26:39;;;;;;;96.00;6.20;;;;;;;21.01;53.03;99554.69;7308375;19;129849;-43
2023/04/07 04:29:05;;;;;;;55.88;4.78;;;;;;;21.00;53.72;99560.91;7309291;19;130548;-42
2023/04/07 04:31:30;;;;;;;79.85;6.43;;;;;;;21.01;53.51;99557.31;7308305;19;129254;-42
2023/04/07 04:33:55;;;;;;;63.40;4.95;;;;;;;21.01;53.06;99562.53;7306413;19;130893;-40
2023/04/07 04:36:21;;;;;;;86.47;6.07;;;;;;;21.00;53.57;99560.91;7309009;19;129542;-40
2023/04/07 04:38:46;;;;;;;68.00;5.25;;;;;;;21.00;53.04;99558.28;7308404;19;130130;-40
2023/04/07 04:41:11;;;;;;;64.78;4.97;;;;;;;20.99;53.59;99559.22;7308444;19;129893;-42
2023/04/07 04:43:37;;;;;;;55.58;4.90;;;;;;;20.99;53.62;99554.00;7306888;19;130914;-42
2023/04/07 04:46:02;;;;;;;80.25;5.75;;;;;;;20.89;53.40;99539.25;7307887;19;130556;-40
2023/04/07 04:48:27;;;;;;;88.43;6.38;;;;;;;20.99;52.96;99556.59;7308518;19;129862;-39
2023/04/07 04:50:53;;;;;;;55.47;4.88;;;;;;;20.98;53.71;99562.81;7305902;19;130602;-40
2023/04/07 04:53:18;;;;;;;73.88;5.47;;;;;;;20.98;53.71;99559.38;7306627;19;131341;-40
2023/04/07 04:55:46;;;;;;;69.13;5.47;;;;;;;20.98;53.12;99554.13;7308749;19;130932;-41
2023/04/07 04:58:11;;;;;;;61.10;5.00;;;;;;;20.96;53.29;99559.47;7309058;19;130805;-41
2023/04/07 05:00:36;;;;;;;32.67;3.50;;;;;;;20.96;53.46;99559.47;7308807;19;130404;-41
2023/04/07 05:03:03;;;;;;;68.75;5.15;;;;;;;20.97;53.21;99563.78;7306990;19;129975;-42
2023/04/07 05:05:28;;;;;;;54.37;4.87;;;;;;;20.96;53.15;99564.69;7308048;19;130062;-41
2023/04/07 05:07:53;;;;;;;62.60;4.95;;;;;;;20.96;52.99;99558.66;7308252;19;130699;-42
2023/04/07 05:10:19;;;;;;;50.70;4.57;;;;;;;20.96;53.58;99558.66;7305960;19;129231;-40
2023/04/07 05:12:44;;;;;;;76.43;5.78;;;;;;;20.92;53.41;99552.88;7306237;19;130991;-41
2023/04/07 05:15:10;;;;;;;48.50;4.25;;;;;;;20.83;53.55;99537.16;7308878;19;129426;-41
2023/04/07 05:17:35;;;;;;;68.47;5.37;;;;;;;20.93;53.53;99553.69;7306458;19;130975;-40
2023/04/07 05:20:01;;;;;;;59.58;4.45;;;;;;;20.94;53.21;99556.16;7307724;19;130038;-42
2023/04/07 05:22:26;;;;;;;54.60;5.07;;;;;;;20.90;53.70;99549.56;7307596;19;128996;-41
2023/04/07 05:24:52;;;;;;;52.72;4.72;;;;;;;20.93;52.91;99554.53;7308882;19;131046;-41
2023/04/07 05:27:17;;;;;;;31.90;3.72;;;;;;;20.92;53.07;99555.50;7306883;19;130521;-40
2023/04/07 05:29:43;;;;;;;68.05;5.13;;;;;;;20.92;53.71;99557.28;7306204;19;129811;-41
2023/04/07 05:32:08;;;;;;;75.93;5.45;;;;;;;20.92;53.54;99558.09;7306510;19;130746;-41
2023/04/07 05:34:33;;;;;;;58.23;4.83;;;;;;;20.91;53.43;99553.81;7304883;19;129935;-41
2023/04/07 05:36:59;;;;;;;57.10;5.05;;;;;;;20.91;53.49;99561.66;7305681;19;130117;-42
2023/04/07 05:39:24;;;;;;;57.70;4.63;;;;;;;20.83;53.55;99543.22;7306889;19;130451;-42
2023/04/07 05:41:50;;;;;;;70.25;5.07;;;;;;;20.90;53.46;99549.56;7305958;19;130975;-41
2023/04/07 05:44:16;;;;;;;26.45;3.50;;;;;;;20.90;53.57;99552.19;7304881;19;129954;-40
2023/04/07 05:46:41;;;;;;;61.00;4.97;;;;;;;20.89;53.33;99552.31;7306586;19;130899;-42
2023/04/07 05:49:06;;;;;;;96.78;6.18;;;;;;;20.77;53.51;99541.16;7306539;19;130545;-41
2023/04/07 05:51:32;;;;;;;69.97;5.32;;;;;;;20.89;53.44;99562.78;7306554;19;130139;-40
2023/04/07 05:54:01;;;;;;;44.75;4.57;;;;;;;20.88;53.37;99561.94;7305301;19;130031;-41
2023/04/07 05:56:26;;;;;;;63.17;4.95;;;;;;;20.80;53.33;99543.50;7306119;19;130177;-42
2023/04/07 05:58:52;;;;;;;71.97;5.30;;;;;;;20.88;53.47;99545.44;7307241;19;129113;-42
2023/04/07 06:01:18;;;;;;;66.25;5.43;;;;;;;20.77;53.22;99542.94;7306602;19;129510;-41
2023/04/07 06:03:43;;;;;;;53.80;4.70;;;;;;;20.86;53.44;99556.00;7304726;19;130040;-41
2023/04/07 06:06:08;;;;;;;54.05;4.70;;;;;;;20.85;52.86;99557.00;7306469;19;130484;-41
2023/04/07 06:08:34;;;;;;;91.30;6.40;;;;;;;20.87;53.00;99549.00;7306017;19;130981;-43
2023/04/07 06:11:00;;;;;;;63.45;5.18;;;;;;;20.77;53.40;99533.34;7304388;19;130929;-41
2023/04/07 06:13:26;;;;;;;76.72;6.03;;;;;;;20.86;52.92;99550.78;7304430;19;129711;-42
2023/04/07 06:15:53;;;;;;;69.88;5.47;;;;;;;20.85;53.55;99557.00;7306620;19;129789;-41
2023/04/07 06:18:18;;;;;;;73.57;5.45;;;;;;;20.82;53.30;99546.81;7305978;19;130687;-42
2023/04/07 06:20:44;;;;;;;59.70;5.00;;;;;;;20.85;53.30;99556.16;7306454;19;129377;-41
2023/04/07 06:23:09;;;;;;;54.72;4.40;;;;;;;20.84;53.01;99550.09;7303876;19;131486;-40
2023/04/07 06:25:34;;;;;;;71.00;5.80;;;;;;;20.84;53.16;99552.72;7305720;19;129476;-40
2023/04/07 06:28:00;;;;;;;74.38;5.75;;;;;;;20.84;52.85;99547.47;7305251;19;129990;-40
2023/04/07 06:30:26;;;;;;;43.40;4.30;;;;;;;20.83;53.62;99545.84;7309662;19;129804;-42
2023/04/07 06:32:51;;;;;;;53.63;4.75;;;;;;;20.83;53.39;99550.22;7311593;19;130469;-41
2023/04/07 06:35:16;;;;;;;69.68;5.55;;;;;;;20.83;53.13;99550.22;7311986;19;129878;-41
2023/04/07 06:37:42;;;;;;;50.35;4.35;;;;;;;20.79;53.09;99541.88;7313084;19;129357;-40
2023/04/07 06:40:07;;;;;;;78.70;6.00;;;;;;;20.82;53.25;99552.03;7312440;19;130524;-41
2023/04/07 06:42:33;;;;;;;54.90;4.85;;;;;;;20.82;53.21;99545.97;7310682;19;130067;-41
2023/04/07 06:44:58;;;;;;;90.25;6.40;;;;;;;20.82;53.16;99546.81;7313175;19;131442;-41
2023/04/07 06:47:23;;;;;;;62.17;4.90;;;;;;;20.81;53.10;99545.16;7312859;19;129777;-41
2023/04/07 06:49:49;;;;;;;52.38;4.63;;;;;;;20.80;53.16;99543.50;7311758;19;129283;-41
2023/04/07 06:52:14;;;;;;;67.88;5.30;;;;;;;20.81;53.10;99541.72;7311261;19;130389;-40
2023/04/07 06:54:40;;;;;;;83.63;5.65;;;;;;;20.79;53.28;99544.47;7311829;19;130333;-41
2023/04/07 06:57:10;;;;;;;54.13;4.85;;;;;;;20.79;53.32;99541.88;7312143;19;130408;-42
2023/04/07 06:59:36;;;;;;;49.28;4.47;;;;;;;20.78;53.36;99540.19;7312722;19;131278;-42
2023/04/07 07:02:01;;;;;;;49.08;4.30;;;;;;;20.78;53.44;99540.19;7310527;19;131226;-40
2023/04/07 07:04:26;;;;;;;81.93;5.75;;;;;;;20.77;52.95;99543.78;7309917;19;129617;-41
2023/04/07 07:06:52;;;;;;;59.85;5.00;;;;;;;20.65;53.39;99523.97;7311783;19;130597;-41
2023/04/07 07:09:17;;;;;;;60.17;5.35;;;;;;;20.77;53.05;99549.81;7311164;19;130177;-40
2023/04/07 07:11:43;;;;;;;58.22;5.05;;;;;;;20.64;53.30;99524.94;7309618;19;130288;-42
2023/04/07 07:14:08;;;;;;;84.57;5.72;;;;;;;20.76;53.08;99546.53;7309725;19;132025;-40
2023/04/07 07:16:33;;;;;;;46.72;4.63;;;;;;;20.76;53.10;99542.09;7311640;19;129056;-41
2023/04/07 07:18:59;;;;;;;59.25;5.32;;;;;;;20.75;53.47;99535.25;7312169;19;129287;-42
2023/04/07 07:21:25;;;;;;;83.10;6.18;;;;;;;20.63;53.46;99526.72;7310664;19;131393;-41
2023/04/07 07:23:50;;;;;;;65.47;5.07;;;;;;;20.76;52.98;99549.16;7309451;19;129848;-41
2023/04/07 07:26:16;;;;;;;46.63;4.60;;;;;;;20.74;53.32;99549.28;7311551;19;131686;-41
2023/04/07 07:28:41;;;;;;;61.97;5.20;;;;;;;20.74;53.74;99554.50;7311142;19;131470;-41
2023/04/07 07:31:14;;;;;;;76.95;5.80;;;;;;;20.73;53.11;99545.84;7309357;19;130541;-41
2023/04/07 07:33:42;;;;;;;83.50;6.05;;;;;;;20.73;53.04;99552.84;7308809;19;130078;-42
2023/04/07 07:36:08;;;;;;;71.57;5.72;;;;;;;20.74;53.16;99554.50;7311001;19;129230;-41
2023/04/07 07:38:34;;;;;;;52.17;4.63;;;;;;;20.73;53.67;99561.50;7311838;19;129090;-41
2023/04/07 07:40:59;;;;;;;64.95;5.07;;;;;;;20.72;53.34;99557.22;7310109;19;129256;-41
2023/04/07 07:43:25;;;;;;;67.55;5.22;;;;;;;20.73;53.29;99565.91;7309444;19;130281;-41
2023/04/07 07:45:50;;;;;;;57.88;4.82;;;;;;;20.60;53.33;99544.44;7311390;19;130169;-41
2023/04/07 07:48:16;;;;;;;48.13;4.78;;;;;;;20.71;53.07;99571.25;7310550;19;129586;-43
2023/04/07 07:50:43;;;;;;;91.18;6.60;;;;;;;20.71;53.71;99570.44;7308750;19;129782;-41
2023/04/07 07:53:09;;;;;;;69.75;5.57;;;;;;;20.70;53.15;99574.00;7308918;19;129907;-42
2023/04/07 07:55:34;;;;;;;32.88;4.07;;;;;;;20.70;53.68;99574.00;7309825;19;129326;-41
2023/04/07 07:58:00;;;;;;;56.65;5.18;;;;;;;20.68;53.26;99565.47;7310596;19;130292;-40
2023/04/07 08:00:25;;;;;;;68.88;5.35;;;;;;;20.71;53.71;99575.66;7309445;19;129033;-40
2023/04/07 08:02:51;;;;;;;73.95;5.82;;;;;;;20.69;53.12;99577.59;7309279;19;129420;-42
2023/04/07 08:05:16;;;;;;;65.43;5.90;;;;;;;20.70;53.08;99574.00;7309767;19;129789;-41
2023/04/07 08:07:42;;;;;;;64.40;4.90;;;;;;;20.69;53.61;99583.63;7310010;19;131013;-42
2023/04/07 08:10:08;;;;;;;59.78;5.18;;;;;;;20.68;53.18;99578.53;7309543;19;130949;-42
2023/04/07 08:12:33;;;;;;;62.03;5.17;;;;;;;20.68;53.79;99575.94;7308753;19;129225;-41
2023/04/07 08:14:59;;;;;;;51.60;4.57;;;;;;;20.68;53.13;99575.94;7309399;19;129067;-41
2023/04/07 08:17:24;;;;;;;58.63;5.15;;;;;;;20.66;53.49;99577.84;7309789;19;129267;-40
2023/04/07 08:19:49;;;;;;;74.40;5.65;;;;;;;20.67;53.12;99582.13;7308797;19;129255;-39
2023/04/07 08:22:15;;;;;;;57.72;5.15;;;;;;;20.68;53.09;99594.22;7309665;19;130566;-40
2023/04/07 08:24:40;;;;;;;60.97;5.05;;;;;;;20.67;53.27;99588.19;7309788;19;130038;-40
2023/04/07 08:27:06;;;;;;;55.22;5.22;;;;;;;20.67;53.76;99582.97;7309411;19;129218;-40
2023/04/07 08:29:31;;;;;;;70.63;5.35;;;;;;;20.67;53.76;99584.75;7308238;19;129068;-41
2023/04/07 08:31:56;;;;;;;59.55;5.07;;;;;;;20.66;53.70;99580.44;7306313;19;131005;-40
2023/04/07 08:34:22;;;;;;;47.72;4.32;;;;;;;20.67;53.33;99584.75;7306570;19;130383;-42
2023/04/07 08:36:47;;;;;;;59.88;4.72;;;;;;;20.66;53.59;99583.06;7308613;19;130439;-42
2023/04/07 08:39:13;;;;;;;78.03;5.75;;;;;;;20.67;53.43;99582.13;7308304;19;129889;-40
2023/04/07 08:41:41;;;;;;;57.38;5.03;;;;;;;20.55;53.62;99570.13;7308009;19;129305;-42
2023/04/07 08:44:08;;;;;;;52.20;4.63;;;;;;;20.64;53.85;99585.81;7307355;19;131106;-42
2023/04/07 08:46:33;;;;;;;87.68;5.88;;;;;;;20.65;53.94;99576.19;7308374;19;130845;-40
2023/04/07 08:49:01;;;;;;;55.15;4.10;;;;;;;20.66;53.81;99583.06;7309332;19;129607;-41
2023/04/07 08:51:31;;;;;;;91.50;6.57;;;;;;;20.65;53.56;99581.44;7305285;19;129339;-41
2023/04/07 08:54:05;;;;;;;61.95;5.53;;;;;;;20.65;53.59;99586.66;7306113;19;129809;-40
2023/04/07 08:56:33;;;;;;;64.55;5.35;;;;;;;20.64;53.75;99580.59;7308578;19;130794;-40
2023/04/07 08:59:01;;;;;;;79.60;5.90;;;;;;;20.64;53.37;99579.78;7308235;19;129718;-42
2023/04/07 09:01:28;;;;;;;89.38;6.60;;;;;;;20.61;53.94;99575.63;7308341;19;131002;-41
2023/04/07 09:03:56;;;;;;;;;;;;;;;20.70;54.18;99579.25;7307559;19;131078;-42
2023/04/07 09:06:21;;;;;;;39.75;3.85;;;;;;;20.65;53.71;99578.81;7309025;19;130830;-43
2023/04/07 09:08:46;;;;;;;55.42;4.53;;;;;;;20.63;53.33;99576.34;7308569;19;129261;-43
2023/04/07 09:11:12;;;;;;;63.75;5.32;;;;;;;20.56;54.07;99569.19;7306338;19;130719;-40
2023/04/07 09:13:37;;;;;;;61.05;4.97;;;;;;;20.64;53.56;99582.41;7305983;19;129412;-42
2023/04/07 09:16:03;;;;;;;60.15;4.57;;;;;;;20.63;53.35;99580.72;7308972;19;129537;-41
2023/04/07 09:18:28;;;;;;;73.50;5.45;;;;;;;20.63;53.85;99578.13;7307667;19;130229;-42
2023/04/07 09:21:01;;;;;;;50.47;3.97;;;;;;;20.64;53.82;99579.78;7308767;19;129511;-41
2023/04/07 09:23:34;;;;;;;62.72;5.10;;;;;;;20.63;54.02;99576.34;7306579;19;129909;-41
2023/04/07 09:26:16;;;;;;;47.38;4.18;;;;;;;20.59;54.36;99561.88;7308075;19;130618;-41
2023/04/07 09:28:46;;;;;;;49.97;4.35;;;;;;;20.62;53.86;99563.41;7307942;19;130541;-42
2023/04/07 09:31:12;;;;;;;70.28;5.65;;;;;;;20.60;53.68;99567.94;7305942;19;130426;-42
2023/04/07 09:33:38;;;;;;;62.10;4.95;;;;;;;20.62;53.46;99573.88;7305830;19;129525;-41
2023/04/07 09:36:05;;;;;;;57.97;5.00;;;;;;;20.53;53.39;99553.75;7308294;19;130367;-40
2023/04/07 09:38:39;;;;;;;55.00;4.63;;;;;;;20.62;54.30;99571.25;7308176;19;131151;-43
2023/04/07 09:41:11;;;;;;;72.78;5.20;;;;;;;20.61;54.12;99569.56;7306235;19;132122;-43
2023/04/07 09:43:40;;;;;;;76.28;5.55;;;;;;;20.60;53.72;99566.16;7305169;19;129533;-40
2023/04/07 09:46:15;;;;;;;64.50;4.60;;;;;;;20.61;53.39;99569.56;7305971;19;129888;-42
2023/04/07 09:48:42;;;;;;;51.95;4.20;;;;;;;20.61;53.95;99575.63;7309239;19;129429;-40
2023/04/07 09:51:10;;;;;;;63.08;4.50;;;;;;;20.59;53.40;99564.50;7303861;19;129564;-42
2023/04/07 09:53:47;;;;;;;68.78;5.13;;;;;;;20.60;53.76;99558.31;7303433;19;129715;-41
2023/04/07 09:56:15;;;;;;;89.20;5.63;;;;;;;20.60;53.69;99557.50;7306754;19;130322;-42
2023/04/07 09:58:42;;;;;;;59.50;4.35;;;;;;;20.60;53.26;99557.50;7306470;19;129818;-42
2023/04/07 10:01:08;;;;;;;64.45;4.90;;;;;;;20.61;53.94;99564.34;7307175;19;130984;-40
2023/04/07 10:03:35;;;;;;;57.03;4.43;;;;;;;20.60;53.55;99557.50;7304635;19;130805;-42
2023/04/07 10:06:01;;;;;;;78.38;5.45;;;;;;;20.60;53.21;99547.03;7313140;19;129951;-40
2023/04/07 10:08:32;;;;;;;53.65;4.57;;;;;;;20.60;53.89;99555.72;7313076;19;131306;-41
2023/04/07 10:11:00;;;;;;;59.83;4.68;;;;;;;20.61;53.58;99553.91;7312432;19;129908;-41
2023/04/07 10:13:27;;;;;;;66.40;4.97;;;;;;;20.59;53.93;99561.06;7311712;19;130343;-40
2023/04/07 10:15:53;;;;;;;;;;;;;;;20.65;53.54;99565.75;7315167;19;130744;-42
2023/04/07 10:18:19;;;;;;;70.20;5.13;;;;;;;20.58;54.12;99559.41;7313132;19;129918;-40
2023/04/07 10:20:48;;;;;;;63.95;4.75;;;;;;;20.59;53.39;99561.06;7313270;19;131337;-41
2023/04/07 10:23:47;;;;;;;58.58;4.38;;;;;;;20.61;54.23;99559.13;7312150;19;130467;-42
2023/04/07 10:26:16;;;;;;;60.88;4.50;;;;;;;20.58;53.65;99564.63;7312810;19;130099;-40
2023/04/07 10:28:44;;;;;;;54.67;4.45;;;;;;;20.59;53.41;99568.91;7312908;19;130824;-42
2023/04/07 10:31:11;;;;;;;89.97;6.25;;;;;;;20.58;53.81;99564.63;7311749;19;130544;-42
2023/04/07 10:33:48;;;;;;;61.72;4.57;;;;;;;20.59;53.93;99561.06;7311733;19;130464;-41
2023/04/07 10:36:14;;;;;;;66.65;4.80;;;;;;;20.58;53.57;99556.78;7313219;19;131832;-41
2023/04/07 10:38:41;;;;;;;60.23;4.87;;;;;;;20.58;53.65;99549.78;7312788;19;130773;-42
2023/04/07 10:41:29;;;;;;;;;;;;;;;20.62;53.87;99547.75;7313634;19;129616;-42
2023/04/07 10:43:55;;;;;;;61.08;4.70;;;;;;;20.56;53.57;99550.91;7309482;19;130630;-40
2023/04/07 10:46:21;;;;;;;80.77;5.37;;;;;;;20.54;53.63;99553.63;7312531;19;129478;-39
2023/04/07 10:49:07;;;;;;;48.88;4.22;;;;;;;20.55;53.65;99554.44;7312730;19;129229;-42
2023/04/07 10:51:33;;;;;;;79.63;5.57;;;;;;;20.55;53.41;99554.44;7310293;19;130735;-41
2023/04/07 10:54:13;;;;;;;60.00;4.53;;;;;;;20.56;53.87;99566.56;7310522;19;129125;-42
2023/04/07 10:57:01;;;;;;;54.03;4.50;;;;;;;20.45;53.63;99540.53;7312522;19;130755;-39
2023/04/07 10:59:26;;;;;;;53.20;4.05;;;;;;;20.55;53.45;99549.22;7312430;19;129526;-42
2023/04/07 11:02:15;;;;;;;66.53;4.93;;;;;;;20.55;54.22;99554.44;7311095;19;129260;-41
2023/04/07 11:04:44;;;;;;;;;;;;;;;20.60;54.20;99552.25;7312462;19;130756;-41
2023/04/07 11:07:13;;;;;;;68.97;4.57;;;;;;;20.43;53.66;99534.63;7312919;19;130602;-40
2023/04/07 11:09:41;;;;;;;69.70;4.95;;;;;;;20.52;54.17;99557.34;7311929;19;129992;-40
2023/04/07 11:12:07;;;;;;;30.50;2.90;;;;;;;20.44;52.95;99536.28;7309860;19;129227;-42
2023/04/07 11:14:36;;;;;;;54.63;4.10;;;;;;;20.46;53.73;99544.81;7308802;19;130513;-43
2023/04/07 11:17:02;;;;;;;83.32;5.32;;;;;;;20.41;53.92;99531.34;7310754;19;131167;-41
2023/04/07 11:19:27;;;;;;;59.60;4.65;;;;;;;20.52;53.13;99555.56;7311992;19;129347;-42